| Place | Name | Time | Raw score | Score |
|---|---|---|---|---|
| 1 | Maxter Max | 1:16.55 | 1,000 | 206 |
| 2 | Aureljah [THC] | 1:16.69 | 900 | 186 |
| 3 | IllKIllU | 1:22.44 | 859 | 177 |
| 4 | Jay2a | 1:33.83 | 827 | 171 |
| 5 | KnightBane | 1:34.73 | 800 | 165 |
| 6 | Draygone | 1:36.29 | 777 | 160 |
| 7 | Lol Bengals | 1:36.54 | 756 | 156 |
| 8 | The Dank Magician | 1:37.14 | 736 | 152 |
| 9 | jason | 1:37.43 | 718 | 148 |
| 10 | Sayrix | 1:37.79 | 700 | 144 |
| 11 | FluffyTheZombii | 1:38.06 | 684 | 141 |
| 12 | Siddey10 | 1:38.40 | 669 | 138 |
| 13 | SlowScan | 1:39.37 | 654 | 135 |
| 14 | Freud | 1:39.62 | 640 | 132 |
| 15 | Dimitri | 1:39.76 | 626 | 129 |
| 16 | Nero | 1:39.81 | 613 | 126 |
| 17 | Sidewinder Fang | 1:39.92 | 600 | 124 |
| 18 | Dreigo | 1:40.51 | 588 | 121 |
| 19 | GaiaGaiyus | 1:40.69 | 576 | 119 |
| 20 | Gyodesis | 1:40.77 | 565 | 117 |
| 21 | DefenderOfHyrule | 1:40.78 | 553 | 114 |
| 22 | Ruslan145 | 1:41.03 | 542 | 112 |
| 23 | M500 | 1:41.21 | 531 | 110 |
| 24 | Thaumic | 1:41.33 | 521 | 107 |
| 25 | Fancy | 1:41.51 | 511 | 105 |
| 26 | notguts | 1:41.71 | 500 | 103 |
| 27 | kriz_chan | 1:41.80 | 491 | 101 |
| 28 | baakstaff | 1:42.61 | 481 | 99 |
| 29 | TP-N.co PC-118 B-10001110101 | 1:42.83 | 471 | 97 |
| 30 | Orion | 1:42.99 | 462 | 95 |
| 31 | CHAINSAW MONKEY! | 1:43.05 | 453 | 93 |
| 32 | Maus | 1:43.27 | 444 | 92 |
| 33 | Rusty | 1:43.34 | 435 | 90 |
| 34 | G9 | 1:43.38 | 426 | 88 |
| 35 | Californ1a | 1:43.68 | 417 | 86 |
| 36 | Plasmawario | 1:44.00 | 409 | 84 |
| 37 | Drareg | 1:44.07 | 400 | 83 |
| 38 | Zany | 1:44.37 | 392 | 81 |
| 39 | RaiderZulu | 1:44.89 | 384 | 79 |
| 40 | Tim From HR | 1:45.23 | 376 | 78 |
| 41 | Гвоздь | 1:45.50 | 368 | 76 |
| 42 | XiQu3sT | 1:45.68 | 360 | 74 |
| 43 | lun4tic | 1:45.84 | 352 | 73 |
| 44 | Rombommind | 1:46.30 | 345 | 71 |
| 44 | cyace | 1:46.30 | 345 | 71 |
| 46 | cptnbean | 1:46.53 | 330 | 68 |
| 47 | OMANEYE | 1:46.55 | 322 | 66 |
| 48 | Helpme2000 | 1:46.62 | 315 | 65 |
| 49 | Jarek718 | 1:46.89 | 308 | 64 |
| 50 | ReallyDumbFox | 1:47.09 | 300 | 62 |
| 51 | Todd Bonzalez | 1:47.38 | 293 | 60 |
| 52 | Sev | 1:47.59 | 286 | 59 |
| 53 | Latapi | 1:47.60 | 279 | 58 |
| 54 | Azure Zakura | 1:47.73 | 272 | 56 |
| 55 | STAK | 1:47.91 | 266 | 55 |
| 56 | General Kenobi | 1:48.02 | 259 | 53 |
| 57 | The Fox Fellow | 1:48.31 | 252 | 52 |
| 58 | Noah | 1:48.42 | 246 | 51 |
| 59 | Dislin | 1:48.43 | 239 | 49 |
| 60 | Epsilon_Knight | 1:48.53 | 232 | 48 |
| 61 | Loreckine | 1:48.63 | 226 | 47 |
| 62 | sounder129 | 1:48.84 | 219 | 45 |
| 63 | CuddleStrike | 1:48.85 | 213 | 44 |
| 64 | PinesOfChaos | 1:49.34 | 207 | 43 |
| 65 | Crimson Blood | 1:49.40 | 200 | 41 |
| 66 | khrisround2 | 1:49.67 | 194 | 40 |
| 67 | Heldopsokken | 1:49.72 | 188 | 39 |
| 68 | Luminous | 1:50.01 | 182 | 38 |
| 69 | The Unusual Suspect | 1:50.12 | 176 | 36 |
| 70 | Naoroji | 1:50.38 | 170 | 35 |
| 71 | Tribow | 1:50.85 | 164 | 34 |
| 72 | George Redfield | 1:50.94 | 158 | 33 |
| 73 | Danielwow | 1:51.23 | 152 | 31 |
| 74 | BlacKat | 1:51.27 | 146 | 30 |
| 75 | Running With Razors | 1:51.59 | 140 | 29 |
| 76 | Rusty Shackleford | 1:51.82 | 134 | 28 |
| 77 | Da Doom Man | 1:51.93 | 129 | 27 |
| 78 | CodedCrow | 1:52.01 | 123 | 25 |
| 79 | CheeseWithHoles | 1:52.26 | 117 | 24 |
| 80 | Fleabag | 1:52.45 | 112 | 23 |
| 81 | Nuigurumi | 1:52.81 | 106 | 22 |
| 82 | Waonder | 1:53.34 | 100 | 21 |
| 83 | LachenJager | 1:53.36 | 95 | 20 |
| 84 | i0nTempest | 1:53.46 | 89 | 18 |
| 85 | pcl219 | 1:53.61 | 84 | 17 |
| 86 | NicholasKB19 | 1:54.08 | 79 | 16 |
| 87 | GTNeon | 1:54.16 | 73 | 15 |
| 88 | grzhan | 1:54.21 | 68 | 14 |
| 89 | Defiance_LLK | 1:54.28 | 62 | 13 |
| 90 | slug ʕ●.●ʔ | 1:54.57 | 57 | 12 |
| 91 | Natr | 1:54.70 | 52 | 11 |
| 92 | Keldvak | 1:54.84 | 47 | 10 |
| 93 | Galaxic | 1:54.93 | 41 | 8 |
| 94 | Swizy | 1:55.37 | 36 | 7 |
| 95 | Fran | 1:55.43 | 31 | 6 |
| 96 | Meridius_IX / Lucas | 1:55.66 | 26 | 5 |
| 97 | Virus | 1:55.88 | 21 | 4 |
| 98 | Wolf Black | 1:56.01 | 16 | 3 |
| 99 | JayBoneJay | 1:56.09 | 11 | 2 |
| 100 | Iris | 1:56.27 | 6 | 1 |
| 101 | Frozen Dino | 1:56.35 | 0 | 0 |
| 102 | Tem | 1:56.64 | 0 | 0 |
| 103 | delfiler | 1:56.83 | 0 | 0 |
| 104 | Curious Fish | 1:56.95 | 0 | 0 |
| 105 | MP X10L | 1:57.47 | 0 | 0 |
| 106 | Weird Pumpkin | 1:57.53 | 0 | 0 |
| 107 | Greenfire DX | 1:57.63 | 0 | 0 |
| 108 | Sky Captain | 1:57.81 | 0 | 0 |
| 109 | Dragonborn | 1:57.87 | 0 | 0 |
| 110 | Paparazzi | 1:58.02 | 0 | 0 |
| 111 | Warriot | 1:58.18 | 0 | 0 |
| 112 | LobaDK | 1:58.19 | 0 | 0 |
| 113 | zenthorth | 1:58.37 | 0 | 0 |
| 114 | Qioury | 1:58.50 | 0 | 0 |
| 115 | HyperNova | 1:58.58 | 0 | 0 |
| 116 | vorador2 | 1:58.66 | 0 | 0 |
| 117 | Ding | 1:58.78 | 0 | 0 |
| 118 | Jeats | 1:59.83 | 0 | 0 |
| 119 | Teclon | 1:59.87 | 0 | 0 |
| 120 | Azem_of_Earth | 2:00.23 | 0 | 0 |
| 121 | Bridge | 2:00.27 | 0 | 0 |
| 122 | K-NiGHT | 2:00.74 | 0 | 0 |
| 123 | Hotride | 2:00.82 | 0 | 0 |
| 124 | yozpoz | 2:00.94 | 0 | 0 |
| 125 | Eshael | 2:01.10 | 0 | 0 |
| 126 | NIRV007 | 2:01.29 | 0 | 0 |
| 127 | Cyberpunk Ice Noodle | 2:01.36 | 0 | 0 |
| 128 | TheEvilMidnightBomber | 2:01.44 | 0 | 0 |
| 129 | Седун | 2:01.62 | 0 | 0 |
| 130 | Predatory_Balloon | 2:01.83 | 0 | 0 |
| 131 | A̶͓̓z̷͓̍ũ̴̩r̷͔͐e̴ | 2:01.91 | 0 | 0 |
| 132 | Bistdocs | 2:01.98 | 0 | 0 |
| 133 | Hirochi | 2:02.25 | 0 | 0 |
| 134 | Wakko the Car Guy | 2:02.40 | 0 | 0 |
| 135 | Boomer McGeezer | 2:02.64 | 0 | 0 |
| 136 | UnFefeSauvage | 2:02.71 | 0 | 0 |
| 137 | sizifov | 2:02.78 | 0 | 0 |
| 138 | 25 минут кайфа | 2:02.91 | 0 | 0 |
| 139 | Adm | 2:03.27 | 0 | 0 |
| 140 | EonShark | 2:03.30 | 0 | 0 |
| 141 | S.Kappelmann | 2:03.37 | 0 | 0 |
| 142 | // Vaffe | 2:03.78 | 0 | 0 |
| 143 | Bugbeard | 2:03.96 | 0 | 0 |
| 144 | Alleix | 2:03.98 | 0 | 0 |
| 145 | ant | 2:04.24 | 0 | 0 |
| 146 | Arikawa | 2:04.25 | 0 | 0 |
| 147 | cnow | 2:04.50 | 0 | 0 |
| 148 | Screws | 2:04.59 | 0 | 0 |
| 149 | Splatsune Miku | 2:04.64 | 0 | 0 |
| 150 | Fushiggy | 2:04.79 | 0 | 0 |
| 151 | 1MBStudios | 2:05.19 | 0 | 0 |
| 152 | Rian (The Schmaltzy Cynic) | 2:05.31 | 0 | 0 |
| 153 | BuzZoiD | 2:05.40 | 0 | 0 |
| 154 | ItsMarcus | 2:05.70 | 0 | 0 |
| 155 | Zed™ | 2:05.92 | 0 | 0 |
| 156 | maple | 2:06.07 | 0 | 0 |
| 157 | Bean Buscus | 2:06.13 | 0 | 0 |
| 158 | Darklight | 2:06.22 | 0 | 0 |
| 159 | Enzyme Machine | 2:06.23 | 0 | 0 |
| 160 | Arthias | 2:06.29 | 0 | 0 |
| 161 | Andy95 | 2:06.75 | 0 | 0 |
| 162 | jonesysound | 2:06.98 | 0 | 0 |
| 163 | Shadiest | 2:07.03 | 0 | 0 |
| 164 | NoBody | 2:07.06 | 0 | 0 |
| 165 | Sir Johan | 2:07.17 | 0 | 0 |
| 166 | Keiyo | 2:07.43 | 0 | 0 |
| 167 | Ashton_bro | 2:07.48 | 0 | 0 |
| 168 | Kashuzu | 2:07.66 | 0 | 0 |
| 169 | MatsDeBeste | 2:07.78 | 0 | 0 |
| 170 | Masianman | 2:07.89 | 0 | 0 |
| 171 | Simon Evo | 2:07.91 | 0 | 0 |
| 172 | Johnnino | 2:07.98 | 0 | 0 |
| 173 | Kinix | 2:08.53 | 0 | 0 |
| 174 | Fire Claw | 2:08.61 | 0 | 0 |
| 175 | Thunder | 2:08.88 | 0 | 0 |
| 176 | balomy | 2:08.92 | 0 | 0 |
| 177 | cuddle | 2:09.05 | 0 | 0 |
| 178 | dannyburke03 | 2:09.12 | 0 | 0 |
| 179 | McFolt | 2:09.23 | 0 | 0 |
| 180 | Dropkick | 2:09.31 | 0 | 0 |
| 181 | TheEPROM9 LaTeX | 2:09.41 | 0 | 0 |
| 182 | Fish | 2:09.78 | 0 | 0 |
| 183 | Ozymandias | 2:09.95 | 0 | 0 |
| 184 | TagFul19 | 2:10.09 | 0 | 0 |
| 185 | Cujo Cat :3 | 2:10.39 | 0 | 0 |
| 186 | Zach the k1ller | 2:10.61 | 0 | 0 |
| 187 | BrandonK-TN | 2:11.21 | 0 | 0 |
| 188 | Scrat | 2:11.23 | 0 | 0 |
| 189 | itsukarine | 2:11.28 | 0 | 0 |
| 190 | Ultor | 2:11.29 | 0 | 0 |
| 191 | Sunzara | 2:11.33 | 0 | 0 |
| 191 | Jezo | 2:11.33 | 0 | 0 |
| 193 | Loading... | 2:11.57 | 0 | 0 |
| 193 | Aventurain | 2:11.57 | 0 | 0 |
| 195 | Sliestwheel | 2:11.81 | 0 | 0 |
| 196 | miele dishwasher | 2:11.90 | 0 | 0 |
| 197 | Slave-ZERO | 2:12.00 | 0 | 0 |
| 198 | thebigbluesky | 2:12.07 | 0 | 0 |
| 199 | Vortexesz | 2:12.12 | 0 | 0 |
| 200 | aro3o6 | 2:12.22 | 0 | 0 |
| 201 | Hinglewingle Throatjuggler | 2:12.32 | 0 | 0 |
| 202 | Spoofie | 2:12.54 | 0 | 0 |
| 203 | MiniD | 2:12.71 | 0 | 0 |
| 204 | Lavis | 2:12.75 | 0 | 0 |
| 205 | JONTY | 2:13.35 | 0 | 0 |
| 206 | AlveKatt | 2:13.45 | 0 | 0 |
| 207 | dryco | 2:13.60 | 0 | 0 |
| 208 | Vencer | 2:13.61 | 0 | 0 |
| 209 | Coastway To The Heaven Zone | 2:13.78 | 0 | 0 |
| 210 | Yarimi | 2:13.93 | 0 | 0 |
| 211 | Scrittore | 2:13.97 | 0 | 0 |
| 212 | Pan Nikt | 2:14.03 | 0 | 0 |
| 213 | Saint Pierre | 2:14.18 | 0 | 0 |
| 214 | Syn | 2:14.22 | 0 | 0 |
| 215 | Overlord | 2:14.44 | 0 | 0 |
| 216 | Crubo | 2:14.89 | 0 | 0 |
| 217 | gusforester | 2:14.99 | 0 | 0 |
| 218 | Neoblastz | 2:15.04 | 0 | 0 |
| 219 | eva_eva | 2:15.31 | 0 | 0 |
| 220 | LittleKittyArtemis | 2:15.35 | 0 | 0 |
| 221 | Virus Dragovar | 2:15.47 | 0 | 0 |
| 222 | menkaru | 2:15.55 | 0 | 0 |
| 223 | Xeno146 | 2:15.60 | 0 | 0 |
| 223 | arcarijo486 | 2:15.60 | 0 | 0 |
| 225 | [T-PP] PhiniksPlays | 2:15.71 | 0 | 0 |
| 226 | Chaos | 2:15.81 | 0 | 0 |
| 227 | Glypse | 2:16.04 | 0 | 0 |
| 228 | BlackOnyx | 2:16.06 | 0 | 0 |
| 229 | dpgibney | 2:16.19 | 0 | 0 |
| 230 | TS_Mind_Swept | 2:16.22 | 0 | 0 |
| 231 | TheJewelThief | 2:16.32 | 0 | 0 |
| 232 | Sturmwut | 2:16.41 | 0 | 0 |
| 233 | cocob4 | 2:16.42 | 0 | 0 |
| 234 | manashortage | 2:16.58 | 0 | 0 |
| 235 | Tuli | 2:17.16 | 0 | 0 |
| 236 | [Lard] Kriltch | 2:17.22 | 0 | 0 |
| 237 | Dorphan | 2:17.30 | 0 | 0 |
| 238 | Gomorrha | 2:17.56 | 0 | 0 |
| 239 | Pompous Whale | 2:17.60 | 0 | 0 |
| 240 | skankhunt42 | 2:17.72 | 0 | 0 |
| 241 | PalmTopDuck | 2:17.79 | 0 | 0 |
| 242 | Icelyne | 2:17.88 | 0 | 0 |
| 243 | Buck | 2:17.94 | 0 | 0 |
| 244 | Jojo l'asticot | 2:18.23 | 0 | 0 |
| 245 | ene | 2:18.44 | 0 | 0 |
| 246 | SauronGamer | 2:18.67 | 0 | 0 |
| 247 | [deleted] | 2:18.86 | 0 | 0 |
| 248 | Zero_Antlax | 2:19.05 | 0 | 0 |
| 249 | Jass5991 | 2:19.31 | 0 | 0 |
| 250 | Justin | 2:19.46 | 0 | 0 |
| 251 | samson13 | 2:19.64 | 0 | 0 |
| 252 | Apocalyptic Bunny | 2:19.66 | 0 | 0 |
| 253 | Viridus | 2:19.72 | 0 | 0 |
| 254 | [DNF]Speedz101 | 2:19.81 | 0 | 0 |
| 255 | Beets by Farmer Dre | 2:19.83 | 0 | 0 |
| 256 | Deivid | 2:20.03 | 0 | 0 |
| 257 | TehPursuer | 2:20.57 | 0 | 0 |
| 258 | M3ch4B0i | 2:20.64 | 0 | 0 |
| 259 | Joel Pimentel Cassua From Surrey | 2:20.82 | 0 | 0 |
| 260 | Gloþ | 2:20.85 | 0 | 0 |
| 261 | Add1son2013 | 2:21.30 | 0 | 0 |
| 262 | Art Vandelay | 2:21.49 | 0 | 0 |
| 263 | Yokai | 2:21.67 | 0 | 0 |
| 264 | Lud | Forest | 2:21.83 | 0 | 0 |
| 265 | [deleted] | 2:21.99 | 0 | 0 |
| 266 | AyyLmeow | 2:22.00 | 0 | 0 |
| 266 | Tiyenti | 2:22.00 | 0 | 0 |
| 268 | Zenixic | 2:22.31 | 0 | 0 |
| 269 | Amzinoji | 2:22.35 | 0 | 0 |
| 269 | xander | 2:22.35 | 0 | 0 |
| 271 | Numerousluke | 2:22.63 | 0 | 0 |
| 272 | ZSlash | 2:22.92 | 0 | 0 |
| 273 | allysonadrianoribeiro | 2:22.93 | 0 | 0 |
| 274 | 3x | 2:22.99 | 0 | 0 |
| 275 | TheBoredguyyy | 2:23.07 | 0 | 0 |
| 276 | PartTimeCanadian | 2:23.55 | 0 | 0 |
| 277 | Helios | 2:23.61 | 0 | 0 |
| 278 | F.L.P-e tank24 | 2:23.66 | 0 | 0 |
| 279 | guilherme giuseppe | 2:24.02 | 0 | 0 |
| 280 | JaffaCaffa | 2:24.17 | 0 | 0 |
| 281 | Agnes | 2:24.25 | 0 | 0 |
| 282 | Mossy Shush | 2:24.34 | 0 | 0 |
| 283 | Lliane | 2:24.66 | 0 | 0 |
| 284 | fischpferd | 2:25.20 | 0 | 0 |
| 285 | Caffeine Cat | 2:25.86 | 0 | 0 |
| 286 | yLucas_2203 | 2:26.20 | 0 | 0 |
| 287 | Larochelle | 2:27.06 | 0 | 0 |
| 288 | rbrules | 2:27.32 | 0 | 0 |
| 289 | Iggulden | 2:27.68 | 0 | 0 |
| 290 | Poofoo | 2:27.86 | 0 | 0 |
| 291 | jmdajm7 | 2:28.61 | 0 | 0 |
| 292 | Lightshift | 2:28.92 | 0 | 0 |
| 293 | Blexyde | 2:29.03 | 0 | 0 |
| 294 | Vyneci | 2:29.41 | 0 | 0 |
| 295 | Krazy8s | 2:29.43 | 0 | 0 |
| 296 | bacon | 2:29.84 | 0 | 0 |
| 297 | Jarminx | 2:30.83 | 0 | 0 |
| 298 | sendthefish | 2:30.84 | 0 | 0 |
| 299 | krakentoa | 2:30.89 | 0 | 0 |
| 300 | Badger | 2:31.01 | 0 | 0 |
| 301 | spectre. | 2:31.13 | 0 | 0 |
| 302 | Jeebus | 2:31.58 | 0 | 0 |
| 303 | garbile | 2:31.59 | 0 | 0 |
| 304 | Ejotapg | 2:32.07 | 0 | 0 |
| 305 | Nordman | 2:32.08 | 0 | 0 |
| 306 | Strafe | 2:32.15 | 0 | 0 |
| 307 | Rayzuninja | 2:32.28 | 0 | 0 |
| 308 | Hayden | 2:32.45 | 0 | 0 |
| 309 | Monark10 | 2:32.75 | 0 | 0 |
| 310 | Benji | 2:33.03 | 0 | 0 |
| 311 | Foxdear | 2:33.35 | 0 | 0 |
| 312 | Kung-Fu-Lobbe | 2:33.37 | 0 | 0 |
| 312 | squirreljiz | 2:33.37 | 0 | 0 |
| 314 | Buttlet | 2:34.08 | 0 | 0 |
| 315 | CygnusAutomata | 2:34.20 | 0 | 0 |
| 316 | [deleted] | 2:34.30 | 0 | 0 |
| 317 | Sniggles | 2:34.34 | 0 | 0 |
| 318 | Mario | 2:34.40 | 0 | 0 |
| 319 | Synchronize | 2:34.53 | 0 | 0 |
| 320 | GOOSE SATAN! | 2:34.81 | 0 | 0 |
| 321 | Raven-Seven | 2:34.90 | 0 | 0 |
| 322 | Backgrounds' | 2:35.12 | 0 | 0 |
| 323 | Redwolfy | 2:35.27 | 0 | 0 |
| 324 | SolSkyline | 2:35.39 | 0 | 0 |
| 325 | Mathias | 2:35.46 | 0 | 0 |
| 326 | Athice | 2:35.55 | 0 | 0 |
| 327 | Aerwhisp | 2:35.61 | 0 | 0 |
| 328 | Mango Demon | 2:36.48 | 0 | 0 |
| 329 | Hanimani2 | 2:36.54 | 0 | 0 |
| 330 | Solacex | 2:36.66 | 0 | 0 |
| 331 | Chase | 2:36.77 | 0 | 0 |
| 332 | SurvivorRB | 2:36.83 | 0 | 0 |
| 333 | spookster | 2:36.88 | 0 | 0 |
| 334 | FreeFull | 2:36.95 | 0 | 0 |
| 335 | Bad Wolf | 2:37.34 | 0 | 0 |
| 336 | TheDoomslayer | 2:38.20 | 0 | 0 |
| 337 | Arn-Mulet | 2:38.53 | 0 | 0 |
| 338 | Big Chungus2010 | 2:38.94 | 0 | 0 |
| 339 | MarsDevastater | 2:39.03 | 0 | 0 |
| 340 | Birb | 2:39.22 | 0 | 0 |
| 341 | galactic depression | 2:39.33 | 0 | 0 |
| 342 | Mambo | 2:40.48 | 0 | 0 |
| 343 | Maugan Ra | 2:40.72 | 0 | 0 |
| 344 | s00 | 2:40.87 | 0 | 0 |
| 345 | Rahn | 2:40.96 | 0 | 0 |
| 346 | Vintroz | 2:41.13 | 0 | 0 |
| 347 | Blackie Chan | 2:41.28 | 0 | 0 |
| 348 | Tesselode | 2:41.39 | 0 | 0 |
| 349 | Nephuxs | 2:41.44 | 0 | 0 |
| 350 | pox | 2:41.50 | 0 | 0 |
| 351 | KIRBY484 | 2:41.68 | 0 | 0 |
| 352 | GekoKid | 2:41.96 | 0 | 0 |
| 353 | monorail | 2:42.12 | 0 | 0 |
| 354 | The Good Gaming Dragon | 2:42.17 | 0 | 0 |
| 355 | Triumphant Trump (Noties Muted) | 2:42.60 | 0 | 0 |
| 356 | Sgt Severe | 2:42.62 | 0 | 0 |
| 357 | Foul Tarnished | 2:42.70 | 0 | 0 |
| 358 | Roggee | 2:42.82 | 0 | 0 |
| 359 | Noxipiter | 2:42.92 | 0 | 0 |
| 360 | 76561198836144536 | 2:43.71 | 0 | 0 |
| 361 | [deleted] | 2:43.73 | 0 | 0 |
| 362 | Eddie980® | 2:43.81 | 0 | 0 |
| 363 | DamnedDeyvid | 2:43.83 | 0 | 0 |
| 364 | Darnoc703 | 2:43.97 | 0 | 0 |
| 365 | TheWanderer05 | 2:43.99 | 0 | 0 |
| 366 | Ostman | 2:44.18 | 0 | 0 |
| 367 | AnalBreacher | 2:44.45 | 0 | 0 |
| 368 | Grimmy | 2:44.48 | 0 | 0 |
| 369 | ROBBERCHIEF | 2:44.87 | 0 | 0 |
| 370 | Bodhi | 2:45.46 | 0 | 0 |
| 371 | LissomChunk | 2:45.99 | 0 | 0 |
| 372 | Redx | 2:46.04 | 0 | 0 |
| 373 | LaCr0 | 2:46.06 | 0 | 0 |
| 374 | Sawabi | 2:46.64 | 0 | 0 |
| 375 | Adrián | 2:47.15 | 0 | 0 |
| 376 | Agent Starlight | 2:47.24 | 0 | 0 |
| 377 | MAT D.R.⎛⎝≥⏝⏝≤⎠⎞ | 2:47.63 | 0 | 0 |
| 378 | MackyAligatorul | 2:48.16 | 0 | 0 |
| 379 | ketikidistv | 2:48.78 | 0 | 0 |
| 380 | Sibsen | 2:48.98 | 0 | 0 |
| 380 | marius_redandblue | 2:48.98 | 0 | 0 |
| 382 | Jake | 2:49.36 | 0 | 0 |
| 383 | MrNicerDicer | 2:49.40 | 0 | 0 |
| 384 | Chief | 2:49.58 | 0 | 0 |
| 385 | Fusilution | 2:49.65 | 0 | 0 |
| 386 | DobreBobre | 2:49.68 | 0 | 0 |
| 387 | 4onen | 2:50.36 | 0 | 0 |
| 388 | greggerrrrrrs | 2:50.46 | 0 | 0 |
| 389 | Indy1984 | 2:51.46 | 0 | 0 |
| 390 | TheDeco | 2:51.48 | 0 | 0 |
| 391 | Mick | 2:54.01 | 0 | 0 |
| 392 | PragmaticLamb | 2:54.15 | 0 | 0 |
| 393 | limegreenstar10 | 2:54.66 | 0 | 0 |
| 394 | Setsugetsuka | 2:55.16 | 0 | 0 |
| 395 | volrok | 2:55.42 | 0 | 0 |
| 396 | Locura | 2:55.81 | 0 | 0 |
| 397 | KingSizeKid | 2:56.74 | 0 | 0 |
| 398 | ✱ Ale | 2:57.55 | 0 | 0 |
| 399 | Skimmy Fudge | 2:57.68 | 0 | 0 |
| 400 | Zarkilor | 2:57.92 | 0 | 0 |
| 401 | [ACG]Norduil | 2:58.06 | 0 | 0 |
| 402 | lav. | 2:58.10 | 0 | 0 |
| 403 | MyurrDurr | 2:59.23 | 0 | 0 |
| 404 | eduborrelli | 2:59.32 | 0 | 0 |
| 405 | |CoD| Shadow | 2:59.46 | 0 | 0 |
| 405 | Pedro | 2:59.46 | 0 | 0 |
| 407 | Crojoe | 3:00.28 | 0 | 0 |
| 408 | crimes.against.art | 3:01.08 | 0 | 0 |
| 409 | Jeba do Mal | 3:01.60 | 0 | 0 |
| 410 | Meldiron | 3:02.10 | 0 | 0 |
| 411 | astralFitz | 3:02.81 | 0 | 0 |
| 412 | ashendeer | 3:03.14 | 0 | 0 |
| 413 | BK Trombley | 3:04.00 | 0 | 0 |
| 414 | SecretSchizoid | 3:04.76 | 0 | 0 |
| 415 | Jappen | 3:05.53 | 0 | 0 |
| 416 | Moon Fairy Kyra | 3:05.89 | 0 | 0 |
| 417 | cerberus❤ | 3:06.03 | 0 | 0 |
| 418 | JaimmyShine | 3:06.22 | 0 | 0 |
| 419 | ARTistness | 3:06.39 | 0 | 0 |
| 420 | HJQLF | 3:06.88 | 0 | 0 |
| 421 | dany_ev3 | 3:07.15 | 0 | 0 |
| 422 | Billy Rueben | 3:07.17 | 0 | 0 |
| 423 | ATLAS | 3:07.26 | 0 | 0 |
| 424 | Wem | 3:07.86 | 0 | 0 |
| 425 | manatric | 3:08.40 | 0 | 0 |
| 426 | Sword&Leaf | 3:08.83 | 0 | 0 |
| 427 | ^1WᴀʀᴘWɪʀᴇ | 3:09.16 | 0 | 0 |
| 428 | spacecowBo | 3:09.47 | 0 | 0 |
| 429 | HollyPotato | 3:09.73 | 0 | 0 |
| 430 | GetEmOtterHere | 3:10.17 | 0 | 0 |
| 431 | GoogolBob | 3:11.18 | 0 | 0 |
| 432 | Broly | 3:11.37 | 0 | 0 |
| 433 | autistic pringle | 3:11.47 | 0 | 0 |
| 434 | JamesArk | 3:12.25 | 0 | 0 |
| 435 | B'neppe | 3:12.92 | 0 | 0 |
| 436 | alex | 3:13.89 | 0 | 0 |
| 437 | SWAGDOG RELOADED | 3:14.68 | 0 | 0 |
| 438 | LucaTvGaming | 3:14.69 | 0 | 0 |
| 439 | Dragnar The Meme God | 3:15.82 | 0 | 0 |
| 440 | NaCl.The Baka | 3:16.08 | 0 | 0 |
| 441 | rezzonating | 3:16.14 | 0 | 0 |
| 442 | AlphaomegA | 3:17.66 | 0 | 0 |
| 443 | Jan | 3:18.01 | 0 | 0 |
| 444 | Mach Turtle | 3:18.62 | 0 | 0 |
| 445 | Mathierfecal | 3:19.31 | 0 | 0 |
| 446 | Machine Entity | 3:20.46 | 0 | 0 |
| 447 | Шоколадка:) | 3:21.15 | 0 | 0 |
| 448 | SADVCobra | 3:22.10 | 0 | 0 |
| 449 | Fault | 3:24.19 | 0 | 0 |
| 450 | Helinos | 3:25.12 | 0 | 0 |
| 451 | leo | 3:25.22 | 0 | 0 |
| 452 | Doon | 3:27.30 | 0 | 0 |
| 453 | onyxglow | 3:27.82 | 0 | 0 |
| 454 | Dracheron | 3:29.78 | 0 | 0 |
| 455 | Ditto | 3:30.84 | 0 | 0 |
| 456 | MrCrazYFox | 3:31.25 | 0 | 0 |
| 457 | pondering | 3:32.74 | 0 | 0 |
| 458 | The Legumancer | 3:35.65 | 0 | 0 |
| 459 | Blacky Stranger | 3:37.30 | 0 | 0 |
| 460 | kaknbools | 3:38.40 | 0 | 0 |
| 461 | Danny Fox | 3:38.94 | 0 | 0 |
| 462 | ataraxia.wav | 3:38.97 | 0 | 0 |
| 463 | Kronk | 3:39.13 | 0 | 0 |
| 464 | elder matthew | 3:40.30 | 0 | 0 |
| 465 | rey-bukabuka | 3:41.21 | 0 | 0 |
| 466 | Adventure Buddy | 3:41.32 | 0 | 0 |
| 467 | YoloMoth | 3:41.62 | 0 | 0 |
| 468 | Coopstar2323 | 3:43.19 | 0 | 0 |
| 469 | Quiet Kerb | 3:46.78 | 0 | 0 |
| 470 | byanymeansnecessary | 3:46.99 | 0 | 0 |
| 471 | frgo | 3:48.91 | 0 | 0 |
| 472 | Achno | 3:49.23 | 0 | 0 |
| 473 | Canadouu | 3:50.49 | 0 | 0 |
| 474 | Davonavik | 3:54.44 | 0 | 0 |
| 475 | Zikamira | 3:55.73 | 0 | 0 |
| 476 | Ndjek | 3:58.14 | 0 | 0 |
| 477 | cmpltrlx | 3:59.17 | 0 | 0 |
| 478 | DROCHEPOLK | 4:00.06 | 0 | 0 |
| 479 | 𐕣Golden𐕣 | 4:01.58 | 0 | 0 |
| 480 | Walker | 4:04.38 | 0 | 0 |
| 481 | AnubisLegit | 4:04.43 | 0 | 0 |
| 482 | crozak | 4:08.03 | 0 | 0 |
| 483 | Get Past The Monkey | 4:08.28 | 0 | 0 |
| 484 | Tjupo | 4:10.64 | 0 | 0 |
| 485 | skuzzzy | 4:14.63 | 0 | 0 |
| 486 | . | 4:16.89 | 0 | 0 |
| 487 | Panfiro | 4:20.48 | 0 | 0 |
| 488 | Ashton_broo | 4:24.49 | 0 | 0 |
| 489 | Ocap | 4:24.79 | 0 | 0 |
| 490 | quiz | 4:24.95 | 0 | 0 |
| 491 | Mega Mike 70 | 4:29.78 | 0 | 0 |
| 492 | Scarlet | 4:33.39 | 0 | 0 |
| 493 | Don't @ Me | 4:37.39 | 0 | 0 |
| 494 | r3 | 4:43.24 | 0 | 0 |
| 495 | fallenPineapple | 4:44.29 | 0 | 0 |
| 496 | SuperM | 4:53.63 | 0 | 0 |
| 497 | Xenu | 4:58.62 | 0 | 0 |
| 498 | Eorekan | 5:01.93 | 0 | 0 |
| 499 | Milk | 5:11.08 | 0 | 0 |
| 500 | CaptainCheese | 5:23.55 | 0 | 0 |
| 501 | AftDawn | 5:43.85 | 0 | 0 |
| 502 | MPR03a | 6:06.00 | 0 | 0 |
| 503 | TurtleByte | 6:12.67 | 0 | 0 |
| 504 | Phaserlight | 6:56.23 | 0 | 0 |
HoldGrip